Main page
METAR-TAF:

METAR-TAF

Airports :

Skiathos International Airport

Skiathos, Greece

latitude: 39-11N, longitude: 023-30E, elevation: 15 m

Current weather observation

The report was made 17 minutes ago, at 07:50 UTC
Wind 9 kt from the Northeast
Temperature 19°C
Humidity 78%
Pressure 1020 hPa
Visibility 10 km or more
Few clouds at a height of 1000 ft
Scattered clouds at a height of 2500 ft

METAR: LGSK 150750Z 04009KT 9999 FEW010 SCT025 19/15 Q1020

Time: 11:07 (08:07 UTC)

Forecast

The report was made 3 hours and 7 minutes ago, at 05:00 UTC
Forecast valid from 15 at 06 UTC to 15 at 15 UTC
Wind 15 kt from the North/Northeast
Visibility 10 km or more
Scattered clouds at a height of 1000 ft
Broken clouds at a height of 2500 ft
Probability 40% :
Temporary
from 15 at 06 UTC to 15 at 10 UTC
Visibility: 6000 m
rain

TAF: LGSK 150500Z 1506/1515 03015KT 9999 SCT010 BKN025 PROB40 TEMPO 1506/1510 6000 RA

Weather observations and forecasts of more than 4000 airports (METAR and TAF reports).

The available stations are represented by yellow and red dots on the map.

Hover mouse over dot to see the name of the station.

Then click to see weather observations and forecasts.

To change the map : click on the green buttons with a black cross to zoom in, on the green button with a dash to zoom out, or on the green arrows for adjacent maps.


METAR-TAF: